sensor_id;sensor_type;location;lat;lon;timestamp;temperature;humidity
6078;DHT22;3067;49.470;10.394;2024-01-27T00:01:21;3.20;68.30
6078;DHT22;3067;49.470;10.394;2024-01-27T00:03:48;3.20;68.50
6078;DHT22;3067;49.470;10.394;2024-01-27T00:06:17;3.10;68.70
6078;DHT22;3067;49.470;10.394;2024-01-27T00:08:44;3.10;69.00
6078;DHT22;3067;49.470;10.394;2024-01-27T00:11:11;3.10;69.00
6078;DHT22;3067;49.470;10.394;2024-01-27T00:13:38;3.10;68.90
6078;DHT22;3067;49.470;10.394;2024-01-27T00:16:06;3.10;68.90
6078;DHT22;3067;49.470;10.394;2024-01-27T00:18:36;3.10;68.80
6078;DHT22;3067;49.470;10.394;2024-01-27T00:21:03;3.10;68.80
6078;DHT22;3067;49.470;10.394;2024-01-27T00:23:32;3.10;68.60
6078;DHT22;3067;49.470;10.394;2024-01-27T00:26:00;3.10;68.70
6078;DHT22;3067;49.470;10.394;2024-01-27T00:28:27;3.10;68.70
6078;DHT22;3067;49.470;10.394;2024-01-27T00:30:54;3.00;68.90
6078;DHT22;3067;49.470;10.394;2024-01-27T00:33:21;3.00;68.90
6078;DHT22;3067;49.470;10.394;2024-01-27T00:35:48;3.00;68.70
6078;DHT22;3067;49.470;10.394;2024-01-27T00:38:16;2.90;68.90
6078;DHT22;3067;49.470;10.394;2024-01-27T00:40:45;2.90;69.10
6078;DHT22;3067;49.470;10.394;2024-01-27T00:43:12;2.80;69.00
6078;DHT22;3067;49.470;10.394;2024-01-27T00:45:39;2.90;69.10
6078;DHT22;3067;49.470;10.394;2024-01-27T00:48:07;2.80;68.90
6078;DHT22;3067;49.470;10.394;2024-01-27T00:50:34;2.80;68.70
6078;DHT22;3067;49.470;10.394;2024-01-27T00:53:01;2.70;68.80
6078;DHT22;3067;49.470;10.394;2024-01-27T00:55:28;2.70;68.90
6078;DHT22;3067;49.470;10.394;2024-01-27T00:57:56;2.70;68.70
6078;DHT22;3067;49.470;10.394;2024-01-27T01:00:23;2.70;68.60
6078;DHT22;3067;49.470;10.394;2024-01-27T01:02:50;2.80;68.80
6078;DHT22;3067;49.470;10.394;2024-01-27T01:05:17;2.70;68.50
6078;DHT22;3067;49.470;10.394;2024-01-27T01:07:45;2.70;68.60
6078;DHT22;3067;49.470;10.394;2024-01-27T01:10:12;2.50;68.80
6078;DHT22;3067;49.470;10.394;2024-01-27T01:12:39;2.60;68.90
6078;DHT22;3067;49.470;10.394;2024-01-27T01:15:08;2.70;68.90
6078;DHT22;3067;49.470;10.394;2024-01-27T01:17:35;2.70;68.60
6078;DHT22;3067;49.470;10.394;2024-01-27T01:20:03;2.70;68.60
6078;DHT22;3067;49.470;10.394;2024-01-27T01:22:30;2.70;68.60
6078;DHT22;3067;49.470;10.394;2024-01-27T01:24:57;2.70;68.40
6078;DHT22;3067;49.470;10.394;2024-01-27T01:27:24;2.70;68.40
6078;DHT22;3067;49.470;10.394;2024-01-27T01:29:51;2.80;68.20
6078;DHT22;3067;49.470;10.394;2024-01-27T01:32:19;2.80;68.00
6078;DHT22;3067;49.470;10.394;2024-01-27T01:34:48;2.90;68.00
6078;DHT22;3067;49.470;10.394;2024-01-27T01:37:15;2.90;68.00
6078;DHT22;3067;49.470;10.394;2024-01-27T01:39:42;3.00;67.90
6078;DHT22;3067;49.470;10.394;2024-01-27T01:42:09;3.00;67.90
6078;DHT22;3067;49.470;10.394;2024-01-27T01:44:36;3.00;67.70
6078;DHT22;3067;49.470;10.394;2024-01-27T01:47:04;3.00;67.30
6078;DHT22;3067;49.470;10.394;2024-01-27T01:49:33;3.00;67.00
6078;DHT22;3067;49.470;10.394;2024-01-27T01:52:01;2.90;67.00
6078;DHT22;3067;49.470;10.394;2024-01-27T01:54:28;2.90;67.20
6078;DHT22;3067;49.470;10.394;2024-01-27T01:56:58;2.90;67.20
6078;DHT22;3067;49.470;10.394;2024-01-27T01:59:25;2.90;67.20
6078;DHT22;3067;49.470;10.394;2024-01-27T02:01:53;2.80;67.30
6078;DHT22;3067;49.470;10.394;2024-01-27T02:04:20;2.80;67.30
6078;DHT22;3067;49.470;10.394;2024-01-27T02:06:48;2.80;67.00
6078;DHT22;3067;49.470;10.394;2024-01-27T02:09:15;2.70;67.10
6078;DHT22;3067;49.470;10.394;2024-01-27T02:11:42;2.50;67.30
6078;DHT22;3067;49.470;10.394;2024-01-27T02:14:10;2.40;67.50
6078;DHT22;3067;49.470;10.394;2024-01-27T02:16:38;2.40;67.70
6078;DHT22;3067;49.470;10.394;2024-01-27T02:19:05;2.40;67.90
6078;DHT22;3067;49.470;10.394;2024-01-27T02:21:32;2.30;68.20
6078;DHT22;3067;49.470;10.394;2024-01-27T02:24:01;2.30;68.30
6078;DHT22;3067;49.470;10.394;2024-01-27T02:26:29;2.30;68.40
6078;DHT22;3067;49.470;10.394;2024-01-27T02:28:56;2.30;68.40
6078;DHT22;3067;49.470;10.394;2024-01-27T02:31:23;2.30;68.20
6078;DHT22;3067;49.470;10.394;2024-01-27T02:33:50;2.20;68.00
6078;DHT22;3067;49.470;10.394;2024-01-27T02:36:17;2.10;68.10
6078;DHT22;3067;49.470;10.394;2024-01-27T02:38:45;2.00;68.50
6078;DHT22;3067;49.470;10.394;2024-01-27T02:41:12;1.90;69.00
6078;DHT22;3067;49.470;10.394;2024-01-27T02:43:41;1.80;69.40
6078;DHT22;3067;49.470;10.394;2024-01-27T02:46:11;1.70;70.00
6078;DHT22;3067;49.470;10.394;2024-01-27T02:48:40;1.60;70.40
6078;DHT22;3067;49.470;10.394;2024-01-27T02:51:07;1.60;70.50
6078;DHT22;3067;49.470;10.394;2024-01-27T02:53:34;1.60;70.60
6078;DHT22;3067;49.470;10.394;2024-01-27T02:56:02;1.50;70.90
6078;DHT22;3067;49.470;10.394;2024-01-27T02:58:30;1.50;71.10
6078;DHT22;3067;49.470;10.394;2024-01-27T03:00:59;1.50;71.10
6078;DHT22;3067;49.470;10.394;2024-01-27T03:03:26;1.50;71.10
6078;DHT22;3067;49.470;10.394;2024-01-27T03:05:54;1.50;71.10
6078;DHT22;3067;49.470;10.394;2024-01-27T03:08:21;1.60;71.00
6078;DHT22;3067;49.470;10.394;2024-01-27T03:10:48;1.60;70.90
6078;DHT22;3067;49.470;10.394;2024-01-27T03:13:15;1.50;71.00
6078;DHT22;3067;49.470;10.394;2024-01-27T03:15:44;1.60;71.00
6078;DHT22;3067;49.470;10.394;2024-01-27T03:18:13;1.50;71.10
6078;DHT22;3067;49.470;10.394;2024-01-27T03:20:40;1.50;71.00
6078;DHT22;3067;49.470;10.394;2024-01-27T03:23:07;1.60;70.90
6078;DHT22;3067;49.470;10.394;2024-01-27T03:25:34;1.60;70.80
6078;DHT22;3067;49.470;10.394;2024-01-27T03:28:02;1.60;70.80
6078;DHT22;3067;49.470;10.394;2024-01-27T03:30:29;1.50;70.80
6078;DHT22;3067;49.470;10.394;2024-01-27T03:32:56;1.50;70.90
6078;DHT22;3067;49.470;10.394;2024-01-27T03:35:24;1.40;71.20
6078;DHT22;3067;49.470;10.394;2024-01-27T03:37:51;1.50;71.30
6078;DHT22;3067;49.470;10.394;2024-01-27T03:40:18;1.50;71.20
6078;DHT22;3067;49.470;10.394;2024-01-27T03:42:45;1.50;71.20
6078;DHT22;3067;49.470;10.394;2024-01-27T03:45:12;1.40;71.10
6078;DHT22;3067;49.470;10.394;2024-01-27T03:47:39;1.40;71.10
6078;DHT22;3067;49.470;10.394;2024-01-27T03:50:07;1.40;71.10
6078;DHT22;3067;49.470;10.394;2024-01-27T03:52:36;1.40;70.80
6078;DHT22;3067;49.470;10.394;2024-01-27T03:55:03;1.40;71.00
6078;DHT22;3067;49.470;10.394;2024-01-27T03:57:31;1.40;71.10
6078;DHT22;3067;49.470;10.394;2024-01-27T03:59:58;1.40;70.90
6078;DHT22;3067;49.470;10.394;2024-01-27T04:02:25;1.40;70.70
6078;DHT22;3067;49.470;10.394;2024-01-27T04:04:52;1.40;71.00
6078;DHT22;3067;49.470;10.394;2024-01-27T04:07:19;1.40;71.10
6078;DHT22;3067;49.470;10.394;2024-01-27T04:09:48;1.40;71.00
6078;DHT22;3067;49.470;10.394;2024-01-27T04:12:15;1.40;71.00
6078;DHT22;3067;49.470;10.394;2024-01-27T04:14:42;1.40;70.90
6078;DHT22;3067;49.470;10.394;2024-01-27T04:17:09;1.40;70.80
6078;DHT22;3067;49.470;10.394;2024-01-27T04:19:36;1.50;70.50
6078;DHT22;3067;49.470;10.394;2024-01-27T04:22:03;1.50;70.30
6078;DHT22;3067;49.470;10.394;2024-01-27T04:24:30;1.50;70.20
6078;DHT22;3067;49.470;10.394;2024-01-27T04:26:59;1.60;70.20
6078;DHT22;3067;49.470;10.394;2024-01-27T04:29:28;1.60;70.10
6078;DHT22;3067;49.470;10.394;2024-01-27T04:31:55;1.60;70.10
6078;DHT22;3067;49.470;10.394;2024-01-27T04:34:22;1.60;69.70
6078;DHT22;3067;49.470;10.394;2024-01-27T04:36:49;1.60;69.60
6078;DHT22;3067;49.470;10.394;2024-01-27T04:39:18;1.60;69.70
6078;DHT22;3067;49.470;10.394;2024-01-27T04:41:45;1.60;69.80
6078;DHT22;3067;49.470;10.394;2024-01-27T04:44:13;1.60;69.80
6078;DHT22;3067;49.470;10.394;2024-01-27T04:46:40;1.60;69.70
6078;DHT22;3067;49.470;10.394;2024-01-27T04:49:08;1.50;69.80
6078;DHT22;3067;49.470;10.394;2024-01-27T04:51:35;1.50;70.00
6078;DHT22;3067;49.470;10.394;2024-01-27T04:54:02;1.50;70.00
6078;DHT22;3067;49.470;10.394;2024-01-27T04:56:29;1.40;70.20
6078;DHT22;3067;49.470;10.394;2024-01-27T04:58:56;1.30;70.70
6078;DHT22;3067;49.470;10.394;2024-01-27T05:01:24;1.30;70.70
6078;DHT22;3067;49.470;10.394;2024-01-27T05:03:52;1.20;70.90
6078;DHT22;3067;49.470;10.394;2024-01-27T05:06:19;1.20;71.10
6078;DHT22;3067;49.470;10.394;2024-01-27T05:08:46;1.20;71.20
6078;DHT22;3067;49.470;10.394;2024-01-27T05:11:13;1.20;71.20
6078;DHT22;3067;49.470;10.394;2024-01-27T05:13:40;1.20;71.30
6078;DHT22;3067;49.470;10.394;2024-01-27T05:16:07;1.10;71.50
6078;DHT22;3067;49.470;10.394;2024-01-27T05:18:36;1.10;71.80
6078;DHT22;3067;49.470;10.394;2024-01-27T05:21:03;1.10;71.70
6078;DHT22;3067;49.470;10.394;2024-01-27T05:23:30;1.00;72.00
6078;DHT22;3067;49.470;10.394;2024-01-27T05:25:57;1.00;72.20
6078;DHT22;3067;49.470;10.394;2024-01-27T05:28:24;1.00;72.10
6078;DHT22;3067;49.470;10.394;2024-01-27T05:30:51;1.10;71.90
6078;DHT22;3067;49.470;10.394;2024-01-27T05:33:18;1.10;71.80
6078;DHT22;3067;49.470;10.394;2024-01-27T05:35:47;1.20;71.50
6078;DHT22;3067;49.470;10.394;2024-01-27T05:38:14;1.20;71.30
6078;DHT22;3067;49.470;10.394;2024-01-27T05:40:41;1.40;71.00
6078;DHT22;3067;49.470;10.394;2024-01-27T05:43:11;1.40;70.90
6078;DHT22;3067;49.470;10.394;2024-01-27T05:45:38;1.50;70.60
6078;DHT22;3067;49.470;10.394;2024-01-27T07:39:20;1.10;71.00
6078;DHT22;3067;49.470;10.394;2024-01-27T07:41:47;1.10;71.00
6078;DHT22;3067;49.470;10.394;2024-01-27T07:44:15;1.20;70.90
6078;DHT22;3067;49.470;10.394;2024-01-27T07:46:42;1.20;70.90
6078;DHT22;3067;49.470;10.394;2024-01-27T07:49:09;1.30;70.80
6078;DHT22;3067;49.470;10.394;2024-01-27T07:51:37;1.40;70.80
6078;DHT22;3067;49.470;10.394;2024-01-27T07:54:04;1.40;70.70
6078;DHT22;3067;49.470;10.394;2024-01-27T07:56:33;1.40;70.70
6078;DHT22;3067;49.470;10.394;2024-01-27T07:59:00;1.40;70.70
6078;DHT22;3067;49.470;10.394;2024-01-27T08:01:27;1.40;70.70
6078;DHT22;3067;49.470;10.394;2024-01-27T08:03:54;1.40;70.80
6078;DHT22;3067;49.470;10.394;2024-01-27T08:06:28;1.40;70.80
6078;DHT22;3067;49.470;10.394;2024-01-27T08:08:56;1.40;71.20
6078;DHT22;3067;49.470;10.394;2024-01-27T08:11:23;1.40;71.50
6078;DHT22;3067;49.470;10.394;2024-01-27T08:13:52;1.40;71.60
6078;DHT22;3067;49.470;10.394;2024-01-27T08:16:19;1.40;71.70
6078;DHT22;3067;49.470;10.394;2024-01-27T08:18:47;1.40;71.60
6078;DHT22;3067;49.470;10.394;2024-01-27T08:21:14;1.40;71.70
6078;DHT22;3067;49.470;10.394;2024-01-27T08:23:43;1.50;71.50
6078;DHT22;3067;49.470;10.394;2024-01-27T08:26:10;1.50;71.50
6078;DHT22;3067;49.470;10.394;2024-01-27T08:28:37;1.60;71.50
6078;DHT22;3067;49.470;10.394;2024-01-27T08:31:05;1.70;71.50
6078;DHT22;3067;49.470;10.394;2024-01-27T08:33:32;1.80;71.30
6078;DHT22;3067;49.470;10.394;2024-01-27T08:35:59;1.80;71.50
6078;DHT22;3067;49.470;10.394;2024-01-27T08:38:27;2.00;71.40
6078;DHT22;3067;49.470;10.394;2024-01-27T08:40:54;2.00;71.30
6078;DHT22;3067;49.470;10.394;2024-01-27T08:43:21;2.10;70.90
6078;DHT22;3067;49.470;10.394;2024-01-27T08:45:48;2.20;70.90
6078;DHT22;3067;49.470;10.394;2024-01-27T08:48:17;2.30;70.90
6078;DHT22;3067;49.470;10.394;2024-01-27T08:50:44;2.40;70.70
6078;DHT22;3067;49.470;10.394;2024-01-27T08:53:11;2.40;69.60
6078;DHT22;3067;49.470;10.394;2024-01-27T08:55:38;2.50;69.20
6078;DHT22;3067;49.470;10.394;2024-01-27T08:58:05;2.50;69.00
6078;DHT22;3067;49.470;10.394;2024-01-27T09:00:32;2.50;68.70
6078;DHT22;3067;49.470;10.394;2024-01-27T09:02:59;2.60;68.90
6078;DHT22;3067;49.470;10.394;2024-01-27T09:05:28;2.70;68.60
6078;DHT22;3067;49.470;10.394;2024-01-27T09:07:55;2.70;68.60
6078;DHT22;3067;49.470;10.394;2024-01-27T09:10:22;2.70;68.40
6078;DHT22;3067;49.470;10.394;2024-01-27T09:12:49;2.70;68.60
6078;DHT22;3067;49.470;10.394;2024-01-27T09:15:17;2.70;68.50
6078;DHT22;3067;49.470;10.394;2024-01-27T09:17:44;2.80;68.40
6078;DHT22;3067;49.470;10.394;2024-01-27T09:20:11;2.80;68.60
6078;DHT22;3067;49.470;10.394;2024-01-27T09:22:40;2.80;68.50
6078;DHT22;3067;49.470;10.394;2024-01-27T09:25:08;2.80;68.80
6078;DHT22;3067;49.470;10.394;2024-01-27T09:27:35;2.90;68.60
6078;DHT22;3067;49.470;10.394;2024-01-27T09:30:03;2.90;68.70
6078;DHT22;3067;49.470;10.394;2024-01-27T09:32:30;2.90;68.60
6078;DHT22;3067;49.470;10.394;2024-01-27T09:34:57;2.90;69.10
6078;DHT22;3067;49.470;10.394;2024-01-27T09:37:24;3.00;68.80
6078;DHT22;3067;49.470;10.394;2024-01-27T09:39:53;3.10;68.20
6078;DHT22;3067;49.470;10.394;2024-01-27T09:42:20;3.10;68.20
6078;DHT22;3067;49.470;10.394;2024-01-27T09:44:49;3.10;68.20
6078;DHT22;3067;49.470;10.394;2024-01-27T09:47:16;3.20;67.80
6078;DHT22;3067;49.470;10.394;2024-01-27T09:49:43;3.30;67.50
6078;DHT22;3067;49.470;10.394;2024-01-27T09:52:11;3.30;67.20
6078;DHT22;3067;49.470;10.394;2024-01-27T09:54:40;3.30;67.10
6078;DHT22;3067;49.470;10.394;2024-01-27T09:57:09;3.40;67.20
6078;DHT22;3067;49.470;10.394;2024-01-27T09:59:39;3.50;66.60
6078;DHT22;3067;49.470;10.394;2024-01-27T10:02:09;3.50;66.40
6078;DHT22;3067;49.470;10.394;2024-01-27T10:04:38;3.60;66.30
6078;DHT22;3067;49.470;10.394;2024-01-27T10:07:05;3.70;66.10
6078;DHT22;3067;49.470;10.394;2024-01-27T10:09:32;3.80;66.20
6078;DHT22;3067;49.470;10.394;2024-01-27T10:12:01;3.90;65.30
6078;DHT22;3067;49.470;10.394;2024-01-27T10:14:39;3.90;65.00
6078;DHT22;3067;49.470;10.394;2024-01-27T10:17:09;3.90;65.20
6078;DHT22;3067;49.470;10.394;2024-01-27T10:19:36;4.00;65.30
6078;DHT22;3067;49.470;10.394;2024-01-27T10:22:03;4.10;64.20
6078;DHT22;3067;49.470;10.394;2024-01-27T10:24:31;4.10;64.30
6078;DHT22;3067;49.470;10.394;2024-01-27T10:27:00;4.20;64.50
6078;DHT22;3067;49.470;10.394;2024-01-27T10:29:27;4.30;63.40
6078;DHT22;3067;49.470;10.394;2024-01-27T10:32:06;4.30;64.10
6078;DHT22;3067;49.470;10.394;2024-01-27T10:34:33;4.30;63.60
6078;DHT22;3067;49.470;10.394;2024-01-27T10:37:00;4.40;63.40
6078;DHT22;3067;49.470;10.394;2024-01-27T10:39:27;4.40;63.30
6078;DHT22;3067;49.470;10.394;2024-01-27T10:41:54;4.50;63.40
6078;DHT22;3067;49.470;10.394;2024-01-27T10:44:21;4.40;62.90
6078;DHT22;3067;49.470;10.394;2024-01-27T10:46:49;4.50;63.10
6078;DHT22;3067;49.470;10.394;2024-01-27T10:49:18;4.50;63.20
6078;DHT22;3067;49.470;10.394;2024-01-27T10:51:51;4.60;63.60
6078;DHT22;3067;49.470;10.394;2024-01-27T10:54:23;4.60;62.40
6078;DHT22;3067;49.470;10.394;2024-01-27T10:56:53;4.70;63.70
6078;DHT22;3067;49.470;10.394;2024-01-27T10:59:22;4.70;63.10
6078;DHT22;3067;49.470;10.394;2024-01-27T11:01:49;4.70;62.60
6078;DHT22;3067;49.470;10.394;2024-01-27T11:04:21;4.80;62.00
6078;DHT22;3067;49.470;10.394;2024-01-27T11:06:48;4.90;61.70
6078;DHT22;3067;49.470;10.394;2024-01-27T11:09:17;4.90;61.60
6078;DHT22;3067;49.470;10.394;2024-01-27T11:11:45;4.90;62.20
6078;DHT22;3067;49.470;10.394;2024-01-27T11:14:13;5.00;62.10
6078;DHT22;3067;49.470;10.394;2024-01-27T11:16:40;5.00;61.90
6078;DHT22;3067;49.470;10.394;2024-01-27T11:19:12;5.00;62.40
6078;DHT22;3067;49.470;10.394;2024-01-27T11:21:40;5.00;60.80
6078;DHT22;3067;49.470;10.394;2024-01-27T11:24:15;5.00;60.80
6078;DHT22;3067;49.470;10.394;2024-01-27T11:26:42;5.00;61.00
6078;DHT22;3067;49.470;10.394;2024-01-27T11:29:09;5.00;61.40
6078;DHT22;3067;49.470;10.394;2024-01-27T11:31:45;5.00;61.50
6078;DHT22;3067;49.470;10.394;2024-01-27T11:34:12;5.10;61.30
6078;DHT22;3067;49.470;10.394;2024-01-27T11:36:43;5.10;60.90
6078;DHT22;3067;49.470;10.394;2024-01-27T11:39:23;5.30;60.20
6078;DHT22;3067;49.470;10.394;2024-01-27T11:41:51;5.30;60.80
6078;DHT22;3067;49.470;10.394;2024-01-27T11:44:19;5.30;61.80
6078;DHT22;3067;49.470;10.394;2024-01-27T11:46:47;5.50;61.20
6078;DHT22;3067;49.470;10.394;2024-01-27T11:49:15;5.60;60.40
6078;DHT22;3067;49.470;10.394;2024-01-27T11:51:44;5.60;59.30
6078;DHT22;3067;49.470;10.394;2024-01-27T11:54:11;5.60;59.50
6078;DHT22;3067;49.470;10.394;2024-01-27T11:56:38;5.60;58.50
6078;DHT22;3067;49.470;10.394;2024-01-27T11:59:06;5.60;58.70
6078;DHT22;3067;49.470;10.394;2024-01-27T12:01:33;5.60;58.80
6078;DHT22;3067;49.470;10.394;2024-01-27T12:04:00;5.70;59.20
6078;DHT22;3067;49.470;10.394;2024-01-27T12:06:27;5.60;57.20
6078;DHT22;3067;49.470;10.394;2024-01-27T12:08:56;5.60;58.10
6078;DHT22;3067;49.470;10.394;2024-01-27T12:11:24;5.60;58.00
6078;DHT22;3067;49.470;10.394;2024-01-27T12:13:51;5.70;58.10
6078;DHT22;3067;49.470;10.394;2024-01-27T12:16:19;5.80;58.20
6078;DHT22;3067;49.470;10.394;2024-01-27T12:18:46;5.90;58.20
6078;DHT22;3067;49.470;10.394;2024-01-27T12:21:18;5.90;57.40
6078;DHT22;3067;49.470;10.394;2024-01-27T12:23:52;6.00;57.20
6078;DHT22;3067;49.470;10.394;2024-01-27T12:26:22;6.00;55.70
6078;DHT22;3067;49.470;10.394;2024-01-27T12:28:49;5.90;55.70
6078;DHT22;3067;49.470;10.394;2024-01-27T12:31:16;6.00;56.30
6078;DHT22;3067;49.470;10.394;2024-01-27T12:33:51;6.10;56.10
6078;DHT22;3067;49.470;10.394;2024-01-27T12:36:19;6.20;55.70
6078;DHT22;3067;49.470;10.394;2024-01-27T12:38:52;6.30;55.50
6078;DHT22;3067;49.470;10.394;2024-01-27T12:41:20;6.30;55.20
6078;DHT22;3067;49.470;10.394;2024-01-27T12:43:47;6.30;54.90
6078;DHT22;3067;49.470;10.394;2024-01-27T12:46:15;6.30;54.30
6078;DHT22;3067;49.470;10.394;2024-01-27T12:48:42;6.50;54.80
6078;DHT22;3067;49.470;10.394;2024-01-27T12:51:10;6.60;54.40
6078;DHT22;3067;49.470;10.394;2024-01-27T12:53:38;6.90;54.60
6078;DHT22;3067;49.470;10.394;2024-01-27T12:56:07;7.40;54.80
6078;DHT22;3067;49.470;10.394;2024-01-27T12:58:36;8.00;52.80
6078;DHT22;3067;49.470;10.394;2024-01-27T13:01:03;8.80;49.60
6078;DHT22;3067;49.470;10.394;2024-01-27T13:03:30;9.40;50.10
6078;DHT22;3067;49.470;10.394;2024-01-27T13:05:57;10.40;48.40
6078;DHT22;3067;49.470;10.394;2024-01-27T13:08:25;11.50;46.20
6078;DHT22;3067;49.470;10.394;2024-01-27T13:10:52;12.50;42.10
6078;DHT22;3067;49.470;10.394;2024-01-27T13:13:19;13.10;39.30
6078;DHT22;3067;49.470;10.394;2024-01-27T13:15:47;13.50;39.30
6078;DHT22;3067;49.470;10.394;2024-01-27T13:18:14;13.90;38.20
6078;DHT22;3067;49.470;10.394;2024-01-27T13:20:41;14.30;36.30
6078;DHT22;3067;49.470;10.394;2024-01-27T13:23:09;14.60;36.90
6078;DHT22;3067;49.470;10.394;2024-01-27T13:25:36;15.00;35.80
6078;DHT22;3067;49.470;10.394;2024-01-27T13:28:03;15.50;35.00
6078;DHT22;3067;49.470;10.394;2024-01-27T13:30:33;15.90;35.20
6078;DHT22;3067;49.470;10.394;2024-01-27T13:33:02;16.60;34.60
6078;DHT22;3067;49.470;10.394;2024-01-27T13:35:29;17.40;33.50
6078;DHT22;3067;49.470;10.394;2024-01-27T13:37:56;18.20;31.80
6078;DHT22;3067;49.470;10.394;2024-01-27T13:40:23;18.90;30.20
6078;DHT22;3067;49.470;10.394;2024-01-27T13:42:50;19.20;29.10
6078;DHT22;3067;49.470;10.394;2024-01-27T13:45:18;19.30;28.00
6078;DHT22;3067;49.470;10.394;2024-01-27T13:47:45;19.20;29.20
6078;DHT22;3067;49.470;10.394;2024-01-27T13:50:14;19.60;27.60
6078;DHT22;3067;49.470;10.394;2024-01-27T13:52:41;19.90;27.70
6078;DHT22;3067;49.470;10.394;2024-01-27T13:55:11;20.30;27.20
6078;DHT22;3067;49.470;10.394;2024-01-27T13:57:38;20.50;26.00
6078;DHT22;3067;49.470;10.394;2024-01-27T14:00:07;20.00;26.10
6078;DHT22;3067;49.470;10.394;2024-01-27T14:02:35;18.90;26.70
6078;DHT22;3067;49.470;10.394;2024-01-27T14:05:03;17.70;28.20
6078;DHT22;3067;49.470;10.394;2024-01-27T14:07:32;15.80;30.40
6078;DHT22;3067;49.470;10.394;2024-01-27T14:09:59;14.80;31.90
6078;DHT22;3067;49.470;10.394;2024-01-27T14:12:26;14.10;33.30
6078;DHT22;3067;49.470;10.394;2024-01-27T14:15:01;13.30;34.20
6078;DHT22;3067;49.470;10.394;2024-01-27T14:17:28;12.50;36.00
6078;DHT22;3067;49.470;10.394;2024-01-27T14:19:55;11.90;37.10
6078;DHT22;3067;49.470;10.394;2024-01-27T14:22:22;11.30;38.20
6078;DHT22;3067;49.470;10.394;2024-01-27T14:24:51;10.90;39.00
6078;DHT22;3067;49.470;10.394;2024-01-27T14:27:18;10.40;39.80
6078;DHT22;3067;49.470;10.394;2024-01-27T14:29:51;10.00;41.20
6078;DHT22;3067;49.470;10.394;2024-01-27T14:32:19;9.80;41.90
6078;DHT22;3067;49.470;10.394;2024-01-27T14:34:46;9.60;42.60
6078;DHT22;3067;49.470;10.394;2024-01-27T14:37:13;9.40;43.00
6078;DHT22;3067;49.470;10.394;2024-01-27T14:39:42;9.20;43.30
6078;DHT22;3067;49.470;10.394;2024-01-27T14:42:12;8.90;44.00
6078;DHT22;3067;49.470;10.394;2024-01-27T14:44:40;8.80;44.50
6078;DHT22;3067;49.470;10.394;2024-01-27T14:47:08;8.70;44.50
6078;DHT22;3067;49.470;10.394;2024-01-27T14:49:36;8.60;44.70
6078;DHT22;3067;49.470;10.394;2024-01-27T14:52:04;8.60;44.80
6078;DHT22;3067;49.470;10.394;2024-01-27T14:54:32;8.60;45.30
6078;DHT22;3067;49.470;10.394;2024-01-27T14:56:59;8.90;46.90
6078;DHT22;3067;49.470;10.394;2024-01-27T14:59:29;9.80;49.40
6078;DHT22;3067;49.470;10.394;2024-01-27T15:01:56;11.40;45.50
6078;DHT22;3067;49.470;10.394;2024-01-27T15:04:24;13.10;42.10
6078;DHT22;3067;49.470;10.394;2024-01-27T15:06:52;14.80;38.00
6078;DHT22;3067;49.470;10.394;2024-01-27T15:09:20;16.10;33.80
6078;DHT22;3067;49.470;10.394;2024-01-27T15:11:47;16.50;30.80
6078;DHT22;3067;49.470;10.394;2024-01-27T15:14:14;16.30;30.00
6078;DHT22;3067;49.470;10.394;2024-01-27T15:16:44;15.70;30.50
6078;DHT22;3067;49.470;10.394;2024-01-27T15:19:11;14.90;31.50
6078;DHT22;3067;49.470;10.394;2024-01-27T15:21:38;14.00;32.40
6078;DHT22;3067;49.470;10.394;2024-01-27T15:24:05;13.10;33.40
6078;DHT22;3067;49.470;10.394;2024-01-27T15:26:33;12.50;34.40
6078;DHT22;3067;49.470;10.394;2024-01-27T15:29:00;11.80;35.70
6078;DHT22;3067;49.470;10.394;2024-01-27T15:31:27;11.20;36.90
6078;DHT22;3067;49.470;10.394;2024-01-27T15:33:55;10.80;37.70
6078;DHT22;3067;49.470;10.394;2024-01-27T15:36:22;10.30;38.60
6078;DHT22;3067;49.470;10.394;2024-01-27T15:38:49;10.00;39.80
6078;DHT22;3067;49.470;10.394;2024-01-27T15:41:16;9.60;40.80
6078;DHT22;3067;49.470;10.394;2024-01-27T15:43:44;9.20;41.90
6078;DHT22;3067;49.470;10.394;2024-01-27T15:46:13;9.00;42.50
6078;DHT22;3067;49.470;10.394;2024-01-27T15:48:40;8.60;43.70
6078;DHT22;3067;49.470;10.394;2024-01-27T15:51:09;8.40;44.40
6078;DHT22;3067;49.470;10.394;2024-01-27T15:53:36;8.20;45.10
6078;DHT22;3067;49.470;10.394;2024-01-27T15:56:04;8.00;46.40
6078;DHT22;3067;49.470;10.394;2024-01-27T15:58:32;7.80;46.50
6078;DHT22;3067;49.470;10.394;2024-01-27T16:01:00;7.60;47.00
6078;DHT22;3067;49.470;10.394;2024-01-27T16:03:27;7.50;47.20
6078;DHT22;3067;49.470;10.394;2024-01-27T16:05:54;7.20;47.70
6078;DHT22;3067;49.470;10.394;2024-01-27T16:08:23;7.10;48.20
6078;DHT22;3067;49.470;10.394;2024-01-27T16:10:50;7.00;48.70
6078;DHT22;3067;49.470;10.394;2024-01-27T16:13:18;6.80;49.20
6078;DHT22;3067;49.470;10.394;2024-01-27T16:15:45;6.70;49.80
6078;DHT22;3067;49.470;10.394;2024-01-27T16:18:13;6.50;50.40
6078;DHT22;3067;49.470;10.394;2024-01-27T16:20:40;6.40;50.90
6078;DHT22;3067;49.470;10.394;2024-01-27T16:23:07;6.20;51.20
6078;DHT22;3067;49.470;10.394;2024-01-27T16:25:36;6.10;51.80
6078;DHT22;3067;49.470;10.394;2024-01-27T16:28:03;5.60;53.30
6078;DHT22;3067;49.470;10.394;2024-01-27T16:30:31;5.50;53.60
6078;DHT22;3067;49.470;10.394;2024-01-27T16:32:58;5.40;54.00
6078;DHT22;3067;49.470;10.394;2024-01-27T16:35:25;5.30;54.20
6078;DHT22;3067;49.470;10.394;2024-01-27T16:37:53;5.30;54.40
6078;DHT22;3067;49.470;10.394;2024-01-27T16:40:20;5.10;54.60
6078;DHT22;3067;49.470;10.394;2024-01-27T16:42:48;5.00;54.90
6078;DHT22;3067;49.470;10.394;2024-01-27T16:45:15;5.00;55.10
6078;DHT22;3067;49.470;10.394;2024-01-27T16:47:42;4.90;55.40
6078;DHT22;3067;49.470;10.394;2024-01-27T16:50:09;4.90;55.70
6078;DHT22;3067;49.470;10.394;2024-01-27T16:52:37;4.80;55.80
6078;DHT22;3067;49.470;10.394;2024-01-27T16:55:04;4.70;56.10
6078;DHT22;3067;49.470;10.394;2024-01-27T16:57:32;4.70;56.30
6078;DHT22;3067;49.470;10.394;2024-01-27T17:00:00;4.70;56.40
6078;DHT22;3067;49.470;10.394;2024-01-27T17:02:28;4.60;56.50
6078;DHT22;3067;49.470;10.394;2024-01-27T17:04:55;4.50;56.80
6078;DHT22;3067;49.470;10.394;2024-01-27T17:07:28;4.50;56.80
6078;DHT22;3067;49.470;10.394;2024-01-27T17:09:55;4.40;57.00
6078;DHT22;3067;49.470;10.394;2024-01-27T17:12:22;4.20;56.90
6078;DHT22;3067;49.470;10.394;2024-01-27T17:14:49;4.10;57.20
6078;DHT22;3067;49.470;10.394;2024-01-27T17:17:18;4.00;57.70
6078;DHT22;3067;49.470;10.394;2024-01-27T17:19:45;3.90;58.10
6078;DHT22;3067;49.470;10.394;2024-01-27T17:22:12;3.90;58.30
6078;DHT22;3067;49.470;10.394;2024-01-27T17:24:39;3.90;58.50
6078;DHT22;3067;49.470;10.394;2024-01-27T17:27:06;3.70;58.50
6078;DHT22;3067;49.470;10.394;2024-01-27T17:29:33;3.70;58.60
6078;DHT22;3067;49.470;10.394;2024-01-27T17:32:00;3.60;58.70
6078;DHT22;3067;49.470;10.394;2024-01-27T17:34:28;3.50;59.00
6078;DHT22;3067;49.470;10.394;2024-01-27T17:36:55;3.50;59.30
6078;DHT22;3067;49.470;10.394;2024-01-27T17:39:23;3.50;59.40
6078;DHT22;3067;49.470;10.394;2024-01-27T17:41:50;3.50;59.70
6078;DHT22;3067;49.470;10.394;2024-01-27T17:44:17;3.50;59.80
6078;DHT22;3067;49.470;10.394;2024-01-27T17:46:44;3.50;59.80
6078;DHT22;3067;49.470;10.394;2024-01-27T17:49:11;3.40;59.90
6078;DHT22;3067;49.470;10.394;2024-01-27T17:51:39;3.30;60.00
6078;DHT22;3067;49.470;10.394;2024-01-27T17:54:06;3.30;60.10